Time;durP1;ratioP1;P1;durP2;ratioP2;P2;SDS_P1;SDS_P2;PMS_P1;PMS_P2;Temp;Humidity;BMP_temperature;BMP_pressure;BME280_temperature;BME280_humidity;BME280_pressure;Samples;Min_cycle;Max_cycle;Signal;HPM_P1;HPM_P2
2023/08/21 00:01:30;;;;;;;0.00;0.00;;;24.50;99.90;;;;;;5024340;28;20052;-81
2023/08/21 00:03:55;;;;;;;0.00;0.00;;;24.50;99.90;;;;;;5048961;28;21107;-80
2023/08/21 00:06:21;;;;;;;0.00;0.00;;;24.40;99.90;;;;;;5049062;28;20032;-81
2023/08/21 00:08:47;;;;;;;0.00;0.00;;;24.40;99.90;;;;;;5031354;28;20112;-82
2023/08/21 00:11:12;;;;;;;0.00;0.00;;;24.40;99.90;;;;;;5049477;28;20056;-82
2023/08/21 00:13:38;;;;;;;0.00;0.00;;;24.30;99.90;;;;;;5030143;28;20029;-80
2023/08/21 00:16:04;;;;;;;0.00;0.00;;;24.30;99.90;;;;;;5048691;28;20028;-80
2023/08/21 00:18:29;;;;;;;0.10;0.10;;;24.10;99.90;;;;;;5041511;28;20791;-81
2023/08/21 00:20:55;;;;;;;0.00;0.00;;;24.10;99.90;;;;;;5042600;28;20030;-81
2023/08/21 00:23:21;;;;;;;0.00;0.00;;;24.10;99.90;;;;;;5021917;28;20033;-81
2023/08/21 00:25:47;;;;;;;1.42;0.45;;;24.10;99.90;;;;;;5026123;28;20716;-82
2023/08/21 00:28:14;;;;;;;0.00;0.00;;;24.10;99.90;;;;;;5038436;28;20026;-81
2023/08/21 00:30:39;;;;;;;0.00;0.00;;;24.00;99.90;;;;;;5044919;28;20052;-80
2023/08/21 00:33:05;;;;;;;0.00;0.00;;;24.00;99.90;;;;;;5044340;28;20061;-81
2023/08/21 00:35:31;;;;;;;0.00;0.00;;;24.10;99.90;;;;;;5043602;28;20259;-81
2023/08/21 00:37:57;;;;;;;0.00;0.00;;;24.00;99.90;;;;;;5038227;28;20119;-81
2023/08/21 00:40:22;;;;;;;0.00;0.00;;;24.00;99.90;;;;;;5025719;28;20342;-81
2023/08/21 00:42:48;;;;;;;0.10;0.10;;;23.90;99.90;;;;;;5042376;28;20363;-81
2023/08/21 00:45:14;;;;;;;0.00;0.00;;;23.90;99.90;;;;;;5030186;28;20082;-82
2023/08/21 00:47:40;;;;;;;0.00;0.00;;;23.80;99.90;;;;;;5042055;28;20092;-80
2023/08/21 00:50:07;;;;;;;0.00;0.00;;;23.80;99.90;;;;;;5024669;28;20275;-80
2023/08/21 00:52:34;;;;;;;0.00;0.00;;;23.70;99.90;;;;;;5046191;28;20134;-80
2023/08/21 00:55:00;;;;;;;0.00;0.00;;;23.70;99.90;;;;;;5043081;28;20466;-80
2023/08/21 00:57:27;;;;;;;0.00;0.00;;;23.60;99.90;;;;;;5038726;28;20100;-80
2023/08/21 00:59:53;;;;;;;0.10;0.10;;;23.50;99.90;;;;;;5042163;28;20052;-80
2023/08/21 01:02:19;;;;;;;0.00;0.00;;;23.50;99.90;;;;;;5045399;28;20029;-81
2023/08/21 01:04:45;;;;;;;0.00;0.00;;;23.50;99.90;;;;;;5029732;28;20110;-81
2023/08/21 01:07:11;;;;;;;0.10;0.10;;;23.50;99.90;;;;;;5047529;28;20064;-81
2023/08/21 01:09:52;;;;;;;1.65;1.15;;;23.50;99.90;;;;;;5047079;28;20029;-81
2023/08/21 01:12:48;;;;;;;0.00;0.00;;;23.50;99.90;;;;;;5040925;28;20036;-81
2023/08/21 01:15:14;;;;;;;0.00;0.00;;;23.50;99.90;;;;;;5044812;28;20067;-81
2023/08/21 01:17:42;;;;;;;0.00;0.00;;;23.50;99.90;;;;;;5026032;28;20045;-81
2023/08/21 01:20:10;;;;;;;0.00;0.00;;;23.50;99.90;;;;;;5045260;28;20037;-81
2023/08/21 01:22:38;;;;;;;0.10;0.10;;;23.40;99.90;;;;;;5025855;28;20188;-81
2023/08/21 01:25:05;;;;;;;0.00;0.00;;;23.30;99.90;;;;;;5043782;28;20025;-81
2023/08/21 01:27:31;;;;;;;0.00;0.00;;;23.30;99.90;;;;;;5026593;28;20024;-81
2023/08/21 01:29:57;;;;;;;0.00;0.00;;;23.30;99.90;;;;;;5041213;28;20140;-82
2023/08/21 01:32:48;;;;;;;0.00;0.00;;;23.30;99.90;;;;;;5022063;28;20507;-82
2023/08/21 01:35:14;;;;;;;0.10;0.10;;;23.30;99.90;;;;;;5038633;28;20037;-81
2023/08/21 01:37:40;;;;;;;0.00;0.00;;;23.30;99.90;;;;;;5045553;28;20020;-82
2023/08/21 01:40:07;;;;;;;0.00;0.00;;;23.40;99.90;;;;;;5022201;28;20785;-82
2023/08/21 01:42:32;;;;;;;0.00;0.00;;;23.40;99.90;;;;;;5041179;28;20029;-82
2023/08/21 01:44:58;;;;;;;0.00;0.00;;;23.30;99.90;;;;;;5041781;28;20562;-80
2023/08/21 01:47:24;;;;;;;0.03;0.03;;;23.30;99.90;;;;;;5022798;28;20533;-81
2023/08/21 01:49:52;;;;;;;0.10;0.10;;;23.30;99.90;;;;;;5039322;28;20068;-81
2023/08/21 01:52:21;;;;;;;0.00;0.00;;;23.20;99.90;;;;;;5039051;28;20021;-80
2023/08/21 01:54:49;;;;;;;0.00;0.00;;;23.20;99.90;;;;;;5045032;28;20033;-81
2023/08/21 01:57:15;;;;;;;0.00;0.00;;;23.10;99.90;;;;;;5025518;28;20908;-81
2023/08/21 01:59:40;;;;;;;0.33;0.33;;;23.10;99.90;;;;;;5041610;28;20029;-81
2023/08/21 02:02:06;;;;;;;0.87;0.87;;;23.10;99.90;;;;;;5044592;28;20040;-80
2023/08/21 02:04:32;;;;;;;0.00;0.00;;;23.20;99.90;;;;;;5025979;28;20605;-81
2023/08/21 02:06:57;;;;;;;0.20;0.20;;;23.10;99.90;;;;;;5045525;28;20508;-81
2023/08/21 02:09:23;;;;;;;1.60;1.10;;;23.00;99.90;;;;;;5026915;28;20086;-81
2023/08/21 02:11:48;;;;;;;0.00;0.00;;;23.00;99.90;;;;;;5019811;28;20074;-81
2023/08/21 02:14:14;;;;;;;0.00;0.00;;;22.90;99.90;;;;;;5041760;28;20037;-82
2023/08/21 02:16:40;;;;;;;0.00;0.00;;;22.90;99.90;;;;;;5045122;28;20060;-81
2023/08/21 02:19:05;;;;;;;0.00;0.00;;;22.80;99.90;;;;;;5043025;28;20083;-81
2023/08/21 02:21:34;;;;;;;0.00;0.00;;;22.80;99.90;;;;;;5025983;28;20094;-81
2023/08/21 02:23:59;;;;;;;0.00;0.00;;;22.90;99.90;;;;;;5019813;28;20040;-81
2023/08/21 02:26:25;;;;;;;3.43;1.33;;;22.80;99.90;;;;;;5042395;28;20025;-81
2023/08/21 02:28:51;;;;;;;0.00;0.00;;;22.80;99.90;;;;;;5022113;28;20496;-81
2023/08/21 02:31:16;;;;;;;0.10;0.10;;;22.80;99.90;;;;;;5045590;28;20104;-81
2023/08/21 02:33:42;;;;;;;0.00;0.00;;;22.80;99.90;;;;;;5022524;28;20679;-81
2023/08/21 02:36:08;;;;;;;0.00;0.00;;;22.70;99.90;;;;;;5039382;28;20369;-81
2023/08/21 02:38:33;;;;;;;0.00;0.00;;;22.60;99.90;;;;;;5046568;28;20501;-81
2023/08/21 02:40:59;;;;;;;0.00;0.00;;;22.70;99.90;;;;;;5026568;28;20025;-81
2023/08/21 02:43:25;;;;;;;0.73;0.40;;;22.70;99.90;;;;;;5040764;28;20029;-84
2023/08/21 02:45:50;;;;;;;0.27;0.27;;;22.70;99.90;;;;;;5040575;28;20039;-84
2023/08/21 02:48:16;;;;;;;0.43;0.30;;;22.80;99.90;;;;;;5041154;28;20022;-84
2023/08/21 02:50:42;;;;;;;1.60;1.50;;;22.70;99.90;;;;;;5020056;28;20032;-82
2023/08/21 02:53:07;;;;;;;0.37;0.37;;;22.50;99.90;;;;;;5046077;28;20654;-82
2023/08/21 02:55:33;;;;;;;0.00;0.00;;;22.60;99.90;;;;;;5020534;28;20585;-82
2023/08/21 02:57:59;;;;;;;0.63;0.40;;;22.50;99.90;;;;;;5042331;28;20056;-82
2023/08/21 03:00:24;;;;;;;0.00;0.00;;;22.50;99.90;;;;;;5049633;28;20031;-83
2023/08/21 03:02:50;;;;;;;0.40;0.40;;;22.50;99.90;;;;;;5025898;28;20033;-83
2023/08/21 03:05:16;;;;;;;0.20;0.20;;;22.40;99.90;;;;;;5040884;28;20021;-82
2023/08/21 03:07:42;;;;;;;0.00;0.00;;;22.40;99.90;;;;;;5049315;28;20983;-82
2023/08/21 03:10:08;;;;;;;0.20;0.20;;;22.40;99.90;;;;;;5049113;28;20052;-81
2023/08/21 03:12:33;;;;;;;0.20;0.20;;;22.40;99.90;;;;;;5048171;28;20029;-83
2023/08/21 03:14:59;;;;;;;0.00;0.00;;;22.40;99.90;;;;;;5030725;28;20033;-80
2023/08/21 03:17:25;;;;;;;1.38;0.63;;;22.40;99.90;;;;;;5045629;28;20035;-81
2023/08/21 03:19:51;;;;;;;0.00;0.00;;;22.40;99.90;;;;;;5031601;28;20033;-82
2023/08/21 03:22:16;;;;;;;0.00;0.00;;;22.40;99.90;;;;;;5049123;28;20029;-83
2023/08/21 03:24:42;;;;;;;0.00;0.00;;;22.40;99.90;;;;;;5031492;28;20025;-82
2023/08/21 03:27:08;;;;;;;0.00;0.00;;;22.40;99.90;;;;;;5041972;28;20035;-83
2023/08/21 03:29:33;;;;;;;0.10;0.10;;;22.30;99.90;;;;;;5032114;28;20025;-83
2023/08/21 03:31:59;;;;;;;0.37;0.20;;;22.30;99.90;;;;;;5049204;28;20028;-82
2023/08/21 03:34:25;;;;;;;0.00;0.00;;;22.30;99.90;;;;;;5049252;28;20052;-82
2023/08/21 03:36:51;;;;;;;0.00;0.00;;;22.20;99.90;;;;;;5040791;28;20025;-82
2023/08/21 03:39:16;;;;;;;0.00;0.00;;;22.30;99.90;;;;;;5042912;28;20039;-80
2023/08/21 03:41:42;;;;;;;0.00;0.00;;;22.20;99.90;;;;;;5047398;28;20032;-81
2023/08/21 03:44:08;;;;;;;0.20;0.20;;;22.20;99.90;;;;;;5046467;28;20099;-81
2023/08/21 03:46:33;;;;;;;0.00;0.00;;;22.10;99.90;;;;;;5044096;28;20032;-80
2023/08/21 03:48:59;;;;;;;0.00;0.00;;;22.10;99.90;;;;;;5049865;28;20028;-81
2023/08/21 03:51:24;;;;;;;0.40;0.40;;;22.10;99.90;;;;;;5031315;28;20067;-82
2023/08/21 03:53:50;;;;;;;0.00;0.00;;;22.00;99.90;;;;;;5049305;28;20587;-82
2023/08/21 03:56:16;;;;;;;0.00;0.00;;;22.10;99.90;;;;;;5023138;28;20056;-82
2023/08/21 03:58:42;;;;;;;0.10;0.10;;;22.00;99.90;;;;;;5040557;28;20033;-81
2023/08/21 04:01:07;;;;;;;0.10;0.10;;;22.00;99.90;;;;;;5035154;28;20029;-82
2023/08/21 04:03:33;;;;;;;0.00;0.00;;;21.90;99.90;;;;;;5045615;28;20036;-81
2023/08/21 04:05:59;;;;;;;4.90;1.70;;;21.90;99.90;;;;;;5049168;28;20086;-82
2023/08/21 04:08:25;;;;;;;0.00;0.00;;;21.90;99.90;;;;;;5030753;28;20033;-82
2023/08/21 04:10:52;;;;;;;0.00;0.00;;;22.00;99.90;;;;;;5047790;28;20036;-82
2023/08/21 04:13:18;;;;;;;0.00;0.00;;;22.00;99.90;;;;;;5049075;28;20048;-82
2023/08/21 04:15:45;;;;;;;0.00;0.00;;;22.00;99.90;;;;;;5027690;28;20036;-81
2023/08/21 04:18:10;;;;;;;0.00;0.00;;;22.00;99.90;;;;;;5047080;28;20564;-81
2023/08/21 04:20:36;;;;;;;0.00;0.00;;;22.00;99.90;;;;;;5027853;28;20191;-81
2023/08/21 04:23:02;;;;;;;0.63;0.38;;;22.10;99.90;;;;;;5045928;28;20528;-81
2023/08/21 04:25:28;;;;;;;0.00;0.00;;;22.00;99.90;;;;;;5048133;28;20673;-82
2023/08/21 04:27:53;;;;;;;0.03;0.03;;;22.00;99.90;;;;;;5027318;28;20032;-81
2023/08/21 04:30:19;;;;;;;0.10;0.10;;;22.00;99.90;;;;;;5048148;28;20028;-80
2023/08/21 04:32:45;;;;;;;0.00;0.00;;;22.10;99.90;;;;;;5045211;28;20033;-85
2023/08/21 04:35:11;;;;;;;0.00;0.00;;;22.00;99.90;;;;;;5042991;28;20443;-83
2023/08/21 04:37:42;;;;;;;0.03;0.03;;;21.90;99.90;;;;;;5021470;28;20024;-82
2023/08/21 04:40:09;;;;;;;1.50;0.43;;;21.80;99.90;;;;;;5025190;28;20271;-84
2023/08/21 04:42:34;;;;;;;0.10;0.10;;;21.90;99.90;;;;;;5029748;28;20056;-85
2023/08/21 04:45:02;;;;;;;0.10;0.10;;;21.80;99.90;;;;;;5048286;28;20071;-84
2023/08/21 04:47:28;;;;;;;0.00;0.00;;;21.80;99.90;;;;;;5042129;28;20032;-84
2023/08/21 04:49:55;;;;;;;0.40;0.13;;;21.90;99.90;;;;;;5047776;28;20029;-83
2023/08/21 04:52:21;;;;;;;0.20;0.20;;;21.90;99.90;;;;;;5026101;28;20052;-83
2023/08/21 04:54:47;;;;;;;;;;;22.00;99.90;;;;;;5022147;28;20607;-84
2023/08/21 04:57:13;;;;;;;0.25;0.25;;;22.00;99.90;;;;;;5043501;28;19982;-84
2023/08/21 04:59:39;;;;;;;0.00;0.00;;;21.90;99.90;;;;;;5042428;28;20033;-80
2023/08/21 05:02:05;;;;;;;0.00;0.00;;;21.90;99.90;;;;;;5040612;28;20029;-79
2023/08/21 05:04:31;;;;;;;0.00;0.00;;;21.90;99.90;;;;;;5047369;28;20037;-80
2023/08/21 05:06:56;;;;;;;0.00;0.00;;;21.80;99.90;;;;;;5045497;28;20115;-79
2023/08/21 05:09:22;;;;;;;0.10;0.10;;;21.80;99.90;;;;;;5021749;28;20033;-79
2023/08/21 05:11:47;;;;;;;0.00;0.00;;;21.90;99.90;;;;;;5043853;28;20401;-78
2023/08/21 05:14:13;;;;;;;0.00;0.00;;;21.90;99.90;;;;;;5044792;28;20583;-79
2023/08/21 05:16:39;;;;;;;0.00;0.00;;;21.90;99.90;;;;;;5042520;28;20036;-83
2023/08/21 05:19:06;;;;;;;0.68;0.68;;;22.00;99.90;;;;;;5046413;28;20044;-80
2023/08/21 05:21:31;;;;;;;0.10;0.10;;;22.10;99.90;;;;;;5046404;28;20035;-82
2023/08/21 05:23:57;;;;;;;0.00;0.00;;;22.50;99.90;;;;;;5045804;28;20032;-81
2023/08/21 05:26:23;;;;;;;0.00;0.00;;;22.70;99.90;;;;;;5046088;28;20032;-81
2023/08/21 05:28:48;;;;;;;0.00;0.00;;;22.80;99.90;;;;;;5016559;28;20014;-81
2023/08/21 05:31:14;;;;;;;0.00;0.00;;;23.00;99.90;;;;;;5046387;28;20087;-81
2023/08/21 05:33:39;;;;;;;0.00;0.00;;;23.20;99.90;;;;;;5045855;28;20091;-82
2023/08/21 05:36:05;;;;;;;0.00;0.00;;;23.50;99.90;;;;;;5043981;28;20037;-80
2023/08/21 05:38:31;;;;;;;0.00;0.00;;;23.70;99.90;;;;;;5039080;28;20112;-95
2023/08/21 05:40:58;;;;;;;0.00;0.00;;;24.10;99.90;;;;;;5035250;28;20036;-96
2023/08/21 05:43:24;;;;;;;0.43;0.43;;;24.40;99.90;;;;;;5031065;28;20045;-91
2023/08/21 05:45:52;;;;;;;0.00;0.00;;;24.70;99.90;;;;;;5027668;28;20028;-91
2023/08/21 05:48:18;;;;;;;0.10;0.10;;;24.90;99.90;;;;;;5026243;28;20037;-93
2023/08/21 05:50:44;;;;;;;0.00;0.00;;;25.10;99.90;;;;;;5023747;28;20701;-85
2023/08/21 05:53:10;;;;;;;0.00;0.00;;;25.40;99.90;;;;;;5020906;28;20691;-87
2023/08/21 05:55:38;;;;;;;0.00;0.00;;;25.60;99.90;;;;;;5047128;28;20033;-90
2023/08/21 05:58:07;;;;;;;0.00;0.00;;;25.70;99.90;;;;;;5030966;28;20167;-96
2023/08/21 06:00:34;;;;;;;0.00;0.00;;;26.00;99.90;;;;;;5022901;28;20602;-92
2023/08/21 06:02:59;;;;;;;0.00;0.00;;;26.30;99.90;;;;;;5028681;28;20036;-92
2023/08/21 06:05:26;;;;;;;0.10;0.10;;;26.30;99.90;;;;;;5042948;28;20028;-95
2023/08/21 06:07:52;;;;;;;0.15;0.10;;;26.70;99.90;;;;;;5032678;28;20324;-93
2023/08/21 06:10:18;;;;;;;0.00;0.00;;;26.80;99.90;;;;;;5024083;28;20064;-94
2023/08/21 06:12:44;;;;;;;0.00;0.00;;;26.80;99.90;;;;;;5026107;28;20044;-92
2023/08/21 06:15:10;;;;;;;0.00;0.00;;;27.10;99.90;;;;;;5054440;22;20029;-83
2023/08/21 06:17:39;;;;;;;;;;;27.10;99.90;;;;;;5080079;28;20024;-84
2023/08/21 06:20:08;;;;;;;0.10;0.10;;;27.10;98.90;;;;;;5075704;28;20015;-84
2023/08/21 06:22:34;;;;;;;0.00;0.00;;;27.60;99.10;;;;;;5073547;28;20051;-86
2023/08/21 06:25:00;;;;;;;0.88;0.65;;;27.70;98.10;;;;;;5077932;28;20470;-86
2023/08/21 06:27:26;;;;;;;0.28;0.28;;;27.70;97.80;;;;;;5077113;28;20024;-85
2023/08/21 06:29:52;;;;;;;0.00;0.00;;;28.30;96.90;;;;;;5081531;28;20095;-84
2023/08/21 06:32:17;;;;;;;0.00;0.00;;;28.20;96.50;;;;;;5076812;28;20168;-86
2023/08/21 06:34:43;;;;;;;0.05;0.05;;;28.50;96.00;;;;;;5081454;28;20013;-84
2023/08/21 06:37:09;;;;;;;0.65;0.65;;;28.80;95.40;;;;;;5080731;28;20032;-85
2023/08/21 06:39:35;;;;;;;0.00;0.00;;;28.80;95.60;;;;;;5086086;28;20737;-87
2023/08/21 06:42:01;;;;;;;0.40;0.40;;;28.80;94.80;;;;;;5075674;28;20812;-87
2023/08/21 06:44:26;;;;;;;0.00;0.00;;;28.70;94.50;;;;;;5084417;28;20016;-84
2023/08/21 06:46:52;;;;;;;0.00;0.00;;;29.40;94.30;;;;;;5067733;28;20458;-85
2023/08/21 06:49:18;;;;;;;;;;;29.70;94.20;;;;;;5067539;28;20028;-86
2023/08/21 06:51:44;;;;;;;0.00;0.00;;;30.10;92.70;;;;;;5085534;28;19915;-84
2023/08/21 06:54:09;;;;;;;;;;;29.90;92.20;;;;;;5080985;28;20012;-86
2023/08/21 06:56:35;;;;;;;0.00;0.00;;;29.70;92.00;;;;;;5080569;28;19904;-86
2023/08/21 06:59:02;;;;;;;0.03;0.03;;;29.50;92.80;;;;;;5067132;28;20016;-85
2023/08/21 07:01:28;;;;;;;0.00;0.00;;;30.10;92.40;;;;;;5080644;28;20032;-83
2023/08/21 07:03:53;;;;;;;0.00;0.00;;;30.40;91.10;;;;;;5078274;28;20032;-83
2023/08/21 07:06:19;;;;;;;;;;;30.80;90.70;;;;;;5085841;28;20670;-83
2023/08/21 07:08:45;;;;;;;0.00;0.00;;;31.00;89.10;;;;;;5069728;28;19908;-83
2023/08/21 07:11:12;;;;;;;;;;;31.00;89.00;;;;;;5064571;28;20017;-84
2023/08/21 07:13:38;;;;;;;0.10;0.10;;;31.40;86.70;;;;;;5085574;28;19915;-83
2023/08/21 07:16:05;;;;;;;0.50;0.20;;;31.70;87.00;;;;;;5051314;28;20052;-84
2023/08/21 07:18:35;;;;;;;0.00;0.00;;;31.70;85.80;;;;;;5058233;28;20488;-83
2023/08/21 07:21:03;;;;;;;0.00;0.00;;;32.20;86.50;;;;;;5060206;28;20086;-85
2023/08/21 07:23:29;;;;;;;0.00;0.00;;;32.50;84.30;;;;;;5061274;28;20600;-83
2023/08/21 07:25:54;;;;;;;0.00;0.00;;;32.10;83.50;;;;;;5061617;28;20025;-83
2023/08/21 07:28:20;;;;;;;0.00;0.00;;;32.90;83.20;;;;;;5065015;28;20534;-83
2023/08/21 07:30:46;;;;;;;0.00;0.00;;;33.30;82.70;;;;;;5065347;28;20017;-84
2023/08/21 07:33:12;;;;;;;0.00;0.00;;;32.90;81.30;;;;;;5055668;28;20029;-83
2023/08/21 07:35:37;;;;;;;0.00;0.00;;;32.90;80.20;;;;;;5059070;28;20017;-84
2023/08/21 07:38:03;;;;;;;0.00;0.00;;;33.20;79.60;;;;;;5050338;28;20040;-84
2023/08/21 07:40:29;;;;;;;0.00;0.00;;;33.50;78.30;;;;;;5057322;28;20621;-83
2023/08/21 07:42:55;;;;;;;0.00;0.00;;;34.00;76.90;;;;;;5051973;28;20029;-84
2023/08/21 07:45:21;;;;;;;0.00;0.00;;;33.40;75.50;;;;;;5062256;28;20033;-83
2023/08/21 07:47:46;;;;;;;0.13;0.13;;;33.60;76.90;;;;;;5064714;28;20113;-83
2023/08/21 07:50:14;;;;;;;0.15;0.15;;;34.10;76.80;;;;;;5051365;28;20714;-83
2023/08/21 07:52:40;;;;;;;0.00;0.00;;;34.80;73.20;;;;;;5057977;28;20379;-85
2023/08/21 07:55:06;;;;;;;0.00;0.00;;;35.70;72.30;;;;;;5059142;28;20028;-83
2023/08/21 07:57:32;;;;;;;0.00;0.00;;;35.80;73.10;;;;;;5058072;28;20020;-83
2023/08/21 07:59:58;;;;;;;0.20;0.20;;;36.30;69.50;;;;;;5062190;28;20739;-83
2023/08/21 08:02:24;;;;;;;0.00;0.00;;;36.50;69.70;;;;;;5058107;28;20029;-83
2023/08/21 08:04:50;;;;;;;0.00;0.00;;;36.70;69.10;;;;;;5056842;28;20020;-84
2023/08/21 08:07:15;;;;;;;0.00;0.00;;;36.50;68.50;;;;;;5051090;28;20078;-83
2023/08/21 08:09:41;;;;;;;0.20;0.20;;;37.00;66.50;;;;;;5063796;28;20051;-84
2023/08/21 08:12:08;;;;;;;0.00;0.00;;;37.20;66.00;;;;;;5044931;28;20112;-84
2023/08/21 08:14:33;;;;;;;0.00;0.00;;;38.00;66.20;;;;;;5058587;28;20108;-86
2023/08/21 08:16:59;;;;;;;0.00;0.00;;;37.90;65.50;;;;;;5068281;28;20044;-84
2023/08/21 08:19:25;;;;;;;0.00;0.00;;;38.90;65.70;;;;;;5077216;28;20023;-84
2023/08/21 08:21:50;;;;;;;0.00;0.00;;;38.10;60.80;;;;;;5084045;28;20023;-85
2023/08/21 08:24:16;;;;;;;0.00;0.00;;;37.80;61.20;;;;;;5080018;28;20029;-85
2023/08/21 08:26:43;;;;;;;0.03;0.03;;;38.00;63.00;;;;;;5055569;28;20025;-85
2023/08/21 08:29:09;;;;;;;0.00;0.00;;;38.80;63.70;;;;;;5084164;28;20200;-84
2023/08/21 08:31:35;;;;;;;1.15;0.85;;;39.30;61.20;;;;;;5084625;28;20056;-84
2023/08/21 08:34:00;;;;;;;0.00;0.00;;;38.10;61.40;;;;;;5083140;28;20110;-84
2023/08/21 08:36:26;;;;;;;0.00;0.00;;;39.10;63.70;;;;;;5053176;28;20612;-84
2023/08/21 08:38:52;;;;;;;0.00;0.00;;;39.00;59.10;;;;;;5077588;28;20099;-85
2023/08/21 08:41:38;;;;;;;0.00;0.00;;;39.50;59.20;;;;;;5076045;28;20127;-84
2023/08/21 08:44:04;;;;;;;0.00;0.00;;;39.60;59.10;;;;;;5053388;28;20028;-85
2023/08/21 08:46:30;;;;;;;0.08;0.08;;;40.00;58.40;;;;;;5071189;28;20025;-84
2023/08/21 08:48:57;;;;;;;0.00;0.00;;;40.50;58.70;;;;;;5075176;28;20024;-85
2023/08/21 08:51:24;;;;;;;0.00;0.00;;;40.70;59.30;;;;;;5079955;28;20040;-85
2023/08/21 08:53:50;;;;;;;0.00;0.00;;;40.50;59.30;;;;;;5083818;28;20137;-85
2023/08/21 08:56:16;;;;;;;0.00;0.00;;;41.00;59.20;;;;;;5052754;28;20055;-85
2023/08/21 08:58:42;;;;;;;0.00;0.00;;;40.80;58.40;;;;;;5079357;28;20479;-85
2023/08/21 09:01:12;;;;;;;0.00;0.00;;;41.20;56.00;;;;;;5081571;28;20052;-85
2023/08/21 09:03:38;;;;;;;0.00;0.00;;;40.90;58.30;;;;;;5082877;28;20024;-84
2023/08/21 09:06:04;;;;;;;0.00;0.00;;;41.00;55.70;;;;;;5078153;28;20090;-84
2023/08/21 09:08:30;;;;;;;0.00;0.00;;;41.10;56.50;;;;;;5074415;28;20533;-84
2023/08/21 09:11:03;;;;;;;0.00;0.00;;;41.70;55.80;;;;;;5077191;28;20420;-85
2023/08/21 09:13:31;;;;;;;0.00;0.00;;;41.40;56.30;;;;;;5080807;28;20016;-84
2023/08/21 09:15:56;;;;;;;0.00;0.00;;;41.70;57.40;;;;;;5077673;28;20056;-85
2023/08/21 09:18:22;;;;;;;0.00;0.00;;;42.00;56.70;;;;;;5058482;28;20025;-84
2023/08/21 09:20:48;;;;;;;0.08;0.08;;;41.50;57.30;;;;;;5074772;28;20045;-85
2023/08/21 09:23:16;;;;;;;0.00;0.00;;;41.90;57.60;;;;;;5082723;28;20024;-85
2023/08/21 09:25:46;;;;;;;0.00;0.00;;;42.00;55.20;;;;;;5068184;28;20033;-84
2023/08/21 09:28:13;;;;;;;0.00;0.00;;;41.90;54.60;;;;;;5080806;28;20032;-84
2023/08/21 09:30:53;;;;;;;0.00;0.00;;;41.70;57.30;;;;;;5074618;28;20024;-84
2023/08/21 09:33:23;;;;;;;0.00;0.00;;;41.10;53.80;;;;;;5077070;28;20382;-86
2023/08/21 09:35:52;;;;;;;0.00;0.00;;;42.00;55.50;;;;;;5075501;28;20089;-84
2023/08/21 09:38:19;;;;;;;0.00;0.00;;;42.20;53.30;;;;;;5059793;28;20670;-85
2023/08/21 09:40:51;;;;;;;0.00;0.00;;;42.20;54.80;;;;;;5057550;28;20028;-85
2023/08/21 09:43:17;;;;;;;0.00;0.00;;;42.50;55.60;;;;;;5059808;28;20032;-85
2023/08/21 09:45:47;;;;;;;0.00;0.00;;;41.70;55.10;;;;;;5063080;28;20024;-85
2023/08/21 09:48:13;;;;;;;0.00;0.00;;;41.70;55.60;;;;;;5078968;28;20032;-84
2023/08/21 09:50:40;;;;;;;0.00;0.00;;;42.50;55.00;;;;;;5083003;28;20532;-85
2023/08/21 09:53:09;;;;;;;0.00;0.00;;;42.40;56.10;;;;;;5051467;28;20046;-85
2023/08/21 09:55:35;;;;;;;0.10;0.10;;;42.90;55.00;;;;;;5066182;28;20033;-85
2023/08/21 09:58:03;;;;;;;0.00;0.00;;;43.30;54.80;;;;;;5081578;28;20024;-84
2023/08/21 10:00:35;;;;;;;0.00;0.00;;;42.70;55.50;;;;;;5071115;28;20077;-85
2023/08/21 10:03:07;;;;;;;0.00;0.00;;;42.20;54.20;;;;;;5077503;28;20085;-84
2023/08/21 10:05:34;;;;;;;0.10;0.10;;;42.00;53.50;;;;;;5073448;28;20016;-85
2023/08/21 10:08:02;;;;;;;0.00;0.00;;;42.10;54.50;;;;;;5050563;28;20112;-85
2023/08/21 10:10:33;;;;;;;0.00;0.00;;;41.20;53.10;;;;;;5074039;28;20024;-85
2023/08/21 10:13:00;;;;;;;0.00;0.00;;;41.40;56.80;;;;;;5067490;28;20028;-85
2023/08/21 10:15:30;;;;;;;0.00;0.00;;;42.10;54.20;;;;;;5062814;28;20056;-84
2023/08/21 10:17:56;;;;;;;0.00;0.00;;;42.70;54.70;;;;;;5056044;28;20439;-85
2023/08/21 10:20:24;;;;;;;0.00;0.00;;;41.80;53.20;;;;;;5074894;28;20029;-85
2023/08/21 10:22:54;;;;;;;0.00;0.00;;;41.50;56.50;;;;;;5074419;28;20024;-85
2023/08/21 10:25:28;;;;;;;0.00;0.00;;;39.70;56.60;;;;;;5074640;28;20024;-85
2023/08/21 10:27:56;;;;;;;0.00;0.00;;;39.00;57.30;;;;;;5055236;28;20031;-84
2023/08/21 10:30:26;;;;;;;0.00;0.00;;;37.70;59.40;;;;;;5061815;28;20028;-85
2023/08/21 10:32:54;;;;;;;0.00;0.00;;;36.60;62.40;;;;;;5080674;28;20052;-85
2023/08/21 10:35:22;;;;;;;0.00;0.00;;;36.90;68.10;;;;;;5080152;28;20761;-86
2023/08/21 10:38:17;;;;;;;0.00;0.00;;;35.80;66.60;;;;;;5081027;28;20008;-85
2023/08/21 10:41:08;;;;;;;0.00;0.00;;;36.10;68.00;;;;;;5063481;28;20070;-85
2023/08/21 10:43:52;;;;;;;0.00;0.00;;;35.70;66.50;;;;;;5080873;28;20028;-85
2023/08/21 10:46:17;;;;;;;0.00;0.00;;;35.00;69.40;;;;;;5071300;28;20373;-84
2023/08/21 10:48:43;;;;;;;;;;;34.80;71.10;;;;;;5078090;28;20016;-84
2023/08/21 10:51:09;;;;;;;0.00;0.00;;;35.30;71.50;;;;;;5065486;28;19904;-84
2023/08/21 10:53:35;;;;;;;0.00;0.00;;;35.40;70.40;;;;;;5080901;28;20027;-85
2023/08/21 10:56:01;;;;;;;;;;;34.80;68.10;;;;;;5072867;28;20048;-85
2023/08/21 10:58:27;;;;;;;0.20;0.20;;;35.30;73.10;;;;;;5073458;28;19905;-84
2023/08/21 11:00:56;;;;;;;;;;;35.40;68.00;;;;;;5080919;28;20379;-85
2023/08/21 11:03:21;;;;;;;0.08;0.08;;;34.30;65.80;;;;;;5081611;28;20578;-85
2023/08/21 11:05:59;;;;;;;;;;;34.40;67.80;;;;;;5078544;28;20027;-84
2023/08/21 11:08:25;;;;;;;0.00;0.00;;;34.40;67.50;;;;;;5078279;28;19953;-85
2023/08/21 11:10:51;;;;;;;;;;;35.00;68.40;;;;;;5082398;28;20469;-85
2023/08/21 11:13:16;;;;;;;0.00;0.00;;;34.80;69.20;;;;;;5071215;28;19947;-85
2023/08/21 11:15:44;;;;;;;;;;;34.20;66.20;;;;;;5073718;28;20060;-85
2023/08/21 11:18:11;;;;;;;0.00;0.00;;;34.30;68.20;;;;;;5081398;28;19911;-85
2023/08/21 11:20:37;;;;;;;0.00;0.00;;;34.10;69.80;;;;;;5079346;28;20048;-85
2023/08/21 11:23:06;;;;;;;;;;;33.70;69.20;;;;;;5080350;28;20135;-85
2023/08/21 11:25:33;;;;;;;0.00;0.00;;;33.60;67.60;;;;;;5076217;28;19915;-86
2023/08/21 11:28:02;;;;;;;0.10;0.10;;;33.50;69.10;;;;;;5078198;28;20040;-85
2023/08/21 11:30:28;;;;;;;0.00;0.00;;;33.50;72.10;;;;;;5083049;28;20025;-84
2023/08/21 11:33:09;;;;;;;;;;;33.50;68.20;;;;;;5085078;28;20020;-84
2023/08/21 11:35:36;;;;;;;0.00;0.00;;;33.70;68.80;;;;;;5080297;28;19908;-84
2023/08/21 11:38:02;;;;;;;0.00;0.00;;;33.90;70.00;;;;;;5083301;28;20046;-85
2023/08/21 11:40:28;;;;;;;0.00;0.00;;;33.40;68.50;;;;;;5083451;28;20033;-85
2023/08/21 11:42:59;;;;;;;;;;;33.50;70.40;;;;;;5085859;28;20168;-84
2023/08/21 11:45:26;;;;;;;0.00;0.00;;;33.30;70.60;;;;;;5080739;28;19915;-85
2023/08/21 11:47:55;;;;;;;0.00;0.00;;;33.60;71.30;;;;;;5085561;28;20112;-85
2023/08/21 11:50:21;;;;;;;0.00;0.00;;;33.70;69.90;;;;;;5082825;28;20021;-85
2023/08/21 11:52:47;;;;;;;;;;;33.60;73.50;;;;;;5063726;28;20054;-84
2023/08/21 11:55:13;;;;;;;0.00;0.00;;;33.60;72.20;;;;;;5054438;28;19915;-83
2023/08/21 11:57:51;;;;;;;;;;;33.60;73.10;;;;;;5078830;28;20019;-84
2023/08/21 12:00:18;;;;;;;0.05;0.05;;;33.00;69.60;;;;;;5061090;28;19955;-84
2023/08/21 12:02:57;;;;;;;0.60;0.60;;;33.10;70.20;;;;;;5084867;28;20607;-85
2023/08/21 12:05:23;;;;;;;0.10;0.10;;;33.30;69.00;;;;;;5057508;28;20020;-84
2023/08/21 12:07:48;;;;;;;;;;;32.80;71.20;;;;;;5064676;28;20013;-84
2023/08/21 12:10:21;;;;;;;1.65;1.55;;;32.90;68.20;;;;;;5072360;28;20414;-84
2023/08/21 12:12:47;;;;;;;1.20;0.65;;;32.90;72.60;;;;;;5061755;28;20673;-83
2023/08/21 12:15:12;;;;;;;;;;;33.20;72.70;;;;;;5061001;28;20028;-84
2023/08/21 12:17:38;;;;;;;;;;;33.10;69.70;;;;;;5078809;28;19904;-84
2023/08/21 12:20:10;;;;;;;0.00;0.00;;;33.00;68.20;;;;;;5082726;28;20517;-84
2023/08/21 12:22:37;;;;;;;0.00;0.00;;;33.00;71.60;;;;;;5072226;28;20029;-84
2023/08/21 12:25:04;;;;;;;0.00;0.00;;;32.90;71.10;;;;;;5083422;28;20055;-83
2023/08/21 12:27:30;;;;;;;0.00;0.00;;;32.80;67.70;;;;;;5071189;28;20029;-84
2023/08/21 12:29:56;;;;;;;0.00;0.00;;;32.80;72.60;;;;;;5084527;28;20878;-84
2023/08/21 12:32:22;;;;;;;0.00;0.00;;;32.80;66.60;;;;;;5082380;28;20024;-84
2023/08/21 12:34:47;;;;;;;;;;;32.80;67.60;;;;;;5085198;28;20028;-84
2023/08/21 12:37:13;;;;;;;0.00;0.00;;;32.60;68.80;;;;;;5083868;28;19927;-83
2023/08/21 12:39:39;;;;;;;0.00;0.00;;;32.80;70.30;;;;;;5085145;28;20367;-83
2023/08/21 12:42:04;;;;;;;;;;;32.90;72.50;;;;;;5064990;28;20040;-84
2023/08/21 12:44:30;;;;;;;;;;;32.90;70.90;;;;;;5084947;28;19908;-84
2023/08/21 12:46:56;;;;;;;;;;;32.80;68.10;;;;;;5082062;28;19949;-85
2023/08/21 12:49:21;;;;;;;;;;;32.70;67.20;;;;;;5055204;28;19905;-86
2023/08/21 12:51:47;;;;;;;0.00;0.00;;;32.70;67.50;;;;;;5077321;28;20033;-85